createdAt,value
2018-05-15T00:00:43.595Z,18.45
2018-05-15T00:01:43.591Z,18.40
2018-05-15T00:02:43.591Z,18.40
2018-05-15T00:03:43.583Z,18.34
2018-05-15T00:04:43.581Z,18.29
2018-05-15T00:05:43.573Z,18.28
2018-05-15T00:06:43.567Z,18.25
2018-05-15T00:07:43.564Z,18.23
2018-05-15T00:08:43.559Z,18.26
2018-05-15T00:09:43.555Z,18.25
2018-05-15T00:10:43.555Z,18.20
2018-05-15T00:11:43.543Z,18.29
2018-05-15T00:12:43.540Z,18.23
2018-05-15T00:13:43.538Z,18.22
2018-05-15T00:14:43.528Z,18.23
2018-05-15T00:15:43.524Z,18.19
2018-05-15T00:16:43.529Z,18.13
2018-05-15T00:17:43.515Z,18.11
2018-05-15T00:18:43.513Z,18.11
2018-05-15T00:19:43.507Z,18.08
2018-05-15T00:20:43.501Z,17.98
2018-05-15T00:21:43.496Z,18.07
2018-05-15T00:22:43.495Z,17.95
2018-05-15T00:23:43.490Z,17.97
2018-05-15T00:24:43.484Z,17.97
2018-05-15T00:25:43.481Z,17.94
2018-05-15T00:26:43.472Z,17.98
2018-05-15T00:27:43.467Z,17.97
2018-05-15T00:28:43.462Z,17.94
2018-05-15T00:29:43.460Z,17.98
2018-05-15T00:30:43.454Z,17.92
2018-05-15T00:31:43.449Z,17.86
2018-05-15T00:32:43.446Z,17.85
2018-05-15T00:33:43.438Z,17.79
2018-05-15T00:34:43.435Z,17.87
2018-05-15T00:35:43.427Z,17.83
2018-05-15T00:36:43.432Z,17.76
2018-05-15T00:37:43.423Z,17.80
2018-05-15T00:38:43.418Z,17.85
2018-05-15T00:39:43.408Z,17.83
2018-05-15T00:40:43.407Z,17.70
2018-05-15T00:41:43.401Z,17.82
2018-05-15T00:42:43.394Z,17.65
2018-05-15T00:43:43.391Z,17.65
2018-05-15T00:44:43.388Z,17.70
2018-05-15T00:45:43.381Z,17.67
2018-05-15T00:46:43.375Z,17.70
2018-05-15T00:47:43.374Z,17.67
2018-05-15T00:48:43.370Z,17.59
2018-05-15T00:49:43.360Z,17.63
2018-05-15T00:50:43.360Z,17.60
2018-05-15T00:51:43.353Z,17.54
2018-05-15T00:52:43.350Z,17.48
2018-05-15T00:53:43.344Z,17.42
2018-05-15T00:54:43.339Z,17.42
2018-05-15T00:55:43.331Z,17.45
2018-05-15T00:56:43.330Z,17.41
2018-05-15T00:57:43.329Z,17.42
2018-05-15T00:58:43.320Z,17.42
2018-05-15T00:59:43.312Z,17.39
2018-05-15T01:00:43.308Z,17.36
2018-05-15T01:01:43.305Z,17.34
2018-05-15T01:02:43.293Z,17.33
2018-05-15T01:03:43.290Z,17.29
2018-05-15T01:04:43.287Z,17.26
2018-05-15T01:05:43.280Z,17.24
2018-05-15T01:06:43.277Z,17.29
2018-05-15T01:07:43.273Z,17.20
2018-05-15T01:08:43.263Z,17.26
2018-05-15T01:09:43.259Z,17.14
2018-05-15T01:10:43.257Z,17.19
2018-05-15T01:11:43.248Z,17.16
2018-05-15T01:12:43.249Z,17.11
2018-05-15T01:13:43.241Z,17.12
2018-05-15T01:14:43.241Z,17.14
2018-05-15T01:15:43.229Z,17.11
2018-05-15T01:16:43.226Z,17.09
2018-05-15T01:17:43.247Z,17.12
2018-05-15T01:18:43.213Z,17.08
2018-05-15T01:19:43.209Z,17.14
2018-05-15T01:20:43.199Z,17.16
2018-05-15T01:21:43.205Z,17.06
2018-05-15T01:22:43.200Z,17.11
2018-05-15T01:23:43.189Z,17.04
2018-05-15T01:24:43.185Z,17.01
2018-05-15T01:25:43.177Z,16.94
2018-05-15T01:26:43.175Z,17.04
2018-05-15T01:27:43.170Z,16.97
2018-05-15T01:28:43.164Z,17.01
2018-05-15T01:29:43.158Z,16.93
2018-05-15T01:30:43.149Z,17.01
2018-05-15T01:31:43.151Z,16.83
2018-05-15T01:32:43.140Z,16.81
2018-05-15T01:33:43.137Z,16.97
2018-05-15T01:34:43.137Z,16.83
2018-05-15T01:35:43.128Z,16.84
2018-05-15T01:36:43.117Z,16.84
2018-05-15T01:37:43.115Z,17.01
2018-05-15T01:38:43.109Z,16.81
2018-05-15T01:39:43.105Z,16.86
2018-05-15T01:40:43.099Z,16.84
2018-05-15T01:41:43.091Z,16.86
2018-05-15T01:42:43.090Z,16.78
2018-05-15T01:43:43.081Z,16.86
2018-05-15T01:44:43.077Z,16.79
2018-05-15T01:45:43.073Z,16.83
2018-05-15T01:46:43.073Z,16.83
2018-05-15T01:47:43.064Z,16.81
2018-05-15T01:48:43.063Z,16.89
2018-05-15T01:49:43.051Z,16.79
2018-05-15T01:50:43.124Z,16.75
2018-05-15T01:51:43.105Z,16.78
2018-05-15T01:52:43.038Z,16.72
2018-05-15T01:53:43.055Z,16.66
2018-05-15T01:54:43.025Z,16.74
2018-05-15T01:55:43.032Z,16.75
2018-05-15T01:56:43.019Z,16.65
2018-05-15T01:57:43.008Z,16.65
2018-05-15T01:58:43.008Z,16.58
2018-05-15T01:59:42.995Z,16.64
2018-05-15T02:00:42.993Z,16.57
2018-05-15T02:01:42.989Z,16.64
2018-05-15T02:02:42.981Z,16.65
2018-05-15T02:03:42.975Z,16.58
2018-05-15T02:04:42.975Z,16.57
2018-05-15T02:05:42.962Z,16.56
2018-05-15T02:06:42.960Z,16.54
2018-05-15T02:07:42.953Z,16.69
2018-05-15T02:08:42.950Z,16.60
2018-05-15T02:09:42.945Z,16.58
2018-05-15T02:10:42.948Z,16.50
2018-05-15T02:11:42.931Z,16.47
2018-05-15T02:12:42.926Z,16.56
2018-05-15T02:13:42.931Z,16.42
2018-05-15T02:14:42.917Z,16.49
2018-05-15T02:15:42.909Z,16.49
2018-05-15T02:16:42.901Z,16.47
2018-05-15T02:17:42.899Z,16.42
2018-05-15T02:18:42.892Z,16.43
2018-05-15T02:19:42.886Z,16.50
2018-05-15T02:20:42.880Z,16.49
2018-05-15T02:21:42.882Z,16.50
2018-05-15T02:22:42.874Z,16.49
2018-05-15T02:23:42.866Z,16.46
2018-05-15T02:24:42.860Z,16.35
2018-05-15T02:25:42.852Z,16.38
2018-05-15T02:26:42.848Z,16.32
2018-05-15T02:27:42.845Z,16.33
2018-05-15T02:28:42.841Z,16.32
2018-05-15T02:29:42.831Z,16.31
2018-05-15T02:30:42.832Z,16.28
2018-05-15T02:31:42.829Z,16.21
2018-05-15T02:32:42.815Z,16.26
2018-05-15T02:33:42.809Z,16.29
2018-05-15T02:34:42.804Z,16.28
2018-05-15T02:35:42.799Z,16.26
2018-05-15T02:36:42.795Z,16.24
2018-05-15T02:37:42.788Z,16.21
2018-05-15T02:38:42.780Z,16.28
2018-05-15T02:39:42.776Z,16.24
2018-05-15T02:40:42.769Z,16.23
2018-05-15T02:41:42.767Z,16.23
2018-05-15T02:42:42.758Z,16.23
2018-05-15T02:43:42.755Z,16.17
2018-05-15T02:44:42.746Z,16.15
2018-05-15T02:45:42.744Z,16.08
2018-05-15T02:46:42.758Z,16.10
2018-05-15T02:47:42.730Z,16.21
2018-05-15T02:48:42.721Z,16.04
2018-05-15T02:49:42.717Z,16.05
2018-05-15T02:50:42.713Z,16.09
2018-05-15T02:51:42.708Z,16.10
2018-05-15T02:52:42.703Z,16.05
2018-05-15T02:53:42.701Z,16.09
2018-05-15T02:54:42.686Z,16.04
2018-05-15T02:55:42.689Z,16.09
2018-05-15T02:56:42.683Z,16.04
2018-05-15T02:57:42.681Z,16.12
2018-05-15T02:58:42.669Z,16.13
2018-05-15T02:59:42.662Z,16.08
2018-05-15T03:00:42.653Z,16.04
2018-05-15T03:01:42.666Z,16.05
2018-05-15T03:02:42.640Z,15.92
2018-05-15T03:03:42.634Z,15.97
2018-05-15T03:04:42.634Z,16.02
2018-05-15T03:05:42.627Z,16.00
2018-05-15T03:06:42.622Z,16.01
2018-05-15T03:07:42.612Z,15.97
2018-05-15T03:08:42.608Z,16.00
2018-05-15T03:09:42.603Z,15.97
2018-05-15T03:10:42.597Z,15.92
2018-05-15T03:11:42.599Z,15.90
2018-05-15T03:12:42.586Z,15.86
2018-05-15T03:13:42.583Z,15.86
2018-05-15T03:14:42.576Z,15.83
2018-05-15T03:15:42.566Z,15.79
2018-05-15T03:16:42.560Z,15.76
2018-05-15T03:17:42.556Z,15.80
2018-05-15T03:18:42.551Z,15.73
2018-05-15T03:19:42.544Z,15.70
2018-05-15T03:20:42.541Z,15.67
2018-05-15T03:21:42.536Z,15.72
2018-05-15T03:22:42.526Z,15.72
2018-05-15T03:23:42.521Z,15.73
2018-05-15T03:24:42.516Z,15.73
2018-05-15T03:25:42.509Z,15.68
2018-05-15T03:26:42.502Z,15.73
2018-05-15T03:27:42.498Z,15.68
2018-05-15T03:28:42.496Z,15.64
2018-05-15T03:29:42.486Z,15.73
2018-05-15T03:30:42.478Z,15.72
2018-05-15T03:31:42.480Z,15.65
2018-05-15T03:32:42.466Z,15.70
2018-05-15T03:33:42.466Z,15.72
2018-05-15T03:34:42.457Z,15.61
2018-05-15T03:35:42.527Z,15.65
2018-05-15T03:36:42.444Z,15.61
2018-05-15T03:37:42.440Z,15.62
2018-05-15T03:38:42.430Z,15.57
2018-05-15T03:39:42.431Z,15.64
2018-05-15T03:40:42.427Z,15.64
2018-05-15T03:41:42.418Z,15.47
2018-05-15T03:42:42.414Z,15.51
2018-05-15T03:43:42.401Z,15.54
2018-05-15T03:44:42.397Z,15.49
2018-05-15T03:45:42.391Z,15.57
2018-05-15T03:46:42.384Z,15.47
2018-05-15T03:47:42.383Z,15.51
2018-05-15T03:48:42.376Z,15.51
2018-05-15T03:49:42.368Z,15.46
2018-05-15T03:50:42.360Z,15.37
2018-05-15T03:51:42.357Z,15.39
2018-05-15T03:52:42.351Z,15.37
2018-05-15T03:53:42.345Z,15.40
2018-05-15T03:54:42.339Z,15.36
2018-05-15T03:55:42.331Z,15.37
2018-05-15T03:56:42.329Z,15.33
2018-05-15T03:57:42.320Z,15.39
2018-05-15T03:58:42.315Z,15.39
2018-05-15T03:59:42.310Z,15.29
2018-05-15T04:00:42.300Z,15.39
2018-05-15T04:01:42.300Z,15.28
2018-05-15T04:02:42.291Z,15.33
2018-05-15T04:03:42.283Z,15.28
2018-05-15T04:04:42.277Z,15.27
2018-05-15T04:05:42.268Z,15.29
2018-05-15T04:06:42.264Z,15.35
2018-05-15T04:07:42.262Z,15.28
2018-05-15T04:08:42.335Z,15.36
2018-05-15T04:09:42.247Z,15.35
2018-05-15T04:10:42.242Z,15.36
2018-05-15T04:11:42.232Z,15.28
2018-05-15T04:12:42.248Z,15.29
2018-05-15T04:13:42.225Z,15.25
2018-05-15T04:14:42.213Z,15.36
2018-05-15T04:15:42.213Z,15.24
2018-05-15T04:16:42.207Z,15.36
2018-05-15T04:17:42.205Z,15.28
2018-05-15T04:18:42.192Z,15.31
2018-05-15T04:19:42.189Z,15.25
2018-05-15T04:20:42.184Z,15.33
2018-05-15T04:21:42.174Z,15.27
2018-05-15T04:22:42.167Z,15.29
2018-05-15T04:23:42.165Z,15.36
2018-05-15T04:24:42.159Z,15.33
2018-05-15T04:25:42.148Z,15.35
2018-05-15T04:26:42.144Z,15.33
2018-05-15T04:27:42.138Z,15.25
2018-05-15T04:28:42.132Z,15.33
2018-05-15T04:29:42.134Z,15.40
2018-05-15T04:30:42.121Z,15.33
2018-05-15T04:31:42.117Z,15.29
2018-05-15T04:32:42.111Z,15.28
2018-05-15T04:33:42.100Z,15.27
2018-05-15T04:34:42.097Z,15.29
2018-05-15T04:35:42.088Z,15.29
2018-05-15T04:36:42.097Z,15.39
2018-05-15T04:37:42.076Z,15.29
2018-05-15T04:38:42.079Z,15.33
2018-05-15T04:39:42.065Z,15.40
2018-05-15T04:40:42.063Z,15.36
2018-05-15T04:41:42.052Z,15.46
2018-05-15T04:42:42.049Z,15.55
2018-05-15T04:43:42.081Z,15.47
2018-05-15T04:44:42.040Z,15.64
2018-05-15T04:45:42.033Z,15.64
2018-05-15T04:46:42.026Z,15.64
2018-05-15T04:47:42.020Z,15.57
2018-05-15T04:48:42.013Z,15.62
2018-05-15T04:49:42.022Z,15.70
2018-05-15T04:50:42.001Z,15.73
2018-05-15T04:51:41.998Z,15.80
2018-05-15T04:52:41.992Z,15.86
2018-05-15T04:53:41.986Z,15.97
2018-05-15T04:54:41.975Z,16.01
2018-05-15T04:55:42.059Z,16.04
2018-05-15T04:56:41.968Z,16.08
2018-05-15T04:57:41.965Z,16.02
2018-05-15T04:58:41.957Z,16.10
2018-05-15T04:59:41.948Z,16.20
2018-05-15T05:00:41.949Z,16.28
2018-05-15T05:01:41.935Z,16.26
2018-05-15T05:02:41.932Z,16.35
2018-05-15T05:03:41.930Z,16.33
2018-05-15T05:04:41.923Z,16.54
2018-05-15T05:05:41.917Z,16.43
2018-05-15T05:06:41.913Z,16.58
2018-05-15T05:07:41.906Z,16.53
2018-05-15T05:08:41.900Z,16.66
2018-05-15T05:09:41.896Z,16.81
2018-05-15T05:10:41.892Z,16.86
2018-05-15T05:11:41.900Z,16.86
2018-05-15T05:12:41.895Z,17.01
2018-05-15T05:13:41.877Z,17.05
2018-05-15T05:14:41.868Z,17.02
2018-05-15T05:15:41.865Z,17.09
2018-05-15T05:16:41.863Z,17.11
2018-05-15T05:17:41.860Z,17.27
2018-05-15T05:18:41.856Z,17.42
2018-05-15T05:19:41.854Z,17.46
2018-05-15T05:20:41.851Z,17.51
2018-05-15T05:21:41.840Z,17.64
2018-05-15T05:22:41.837Z,17.56
2018-05-15T05:23:41.839Z,17.60
2018-05-15T05:24:41.831Z,17.74
2018-05-15T05:25:41.828Z,17.74
2018-05-15T05:26:41.825Z,17.70
2018-05-15T05:27:41.821Z,17.86
2018-05-15T05:28:41.814Z,17.92
2018-05-15T05:29:41.814Z,17.90
2018-05-15T05:30:41.809Z,17.97
2018-05-15T05:31:41.806Z,18.03
2018-05-15T05:32:41.811Z,18.13
2018-05-15T05:33:41.802Z,18.28
2018-05-15T05:34:41.798Z,18.31
2018-05-15T05:35:41.798Z,18.29
2018-05-15T05:36:41.796Z,18.33
2018-05-15T05:37:41.791Z,18.33
2018-05-15T05:38:41.784Z,18.38
2018-05-15T05:39:41.785Z,18.35
2018-05-15T05:40:41.783Z,18.53
2018-05-15T05:41:41.781Z,18.55
2018-05-15T05:42:41.778Z,18.41
2018-05-15T05:43:41.779Z,18.49
2018-05-15T05:44:41.770Z,18.58
2018-05-15T05:45:41.774Z,18.52
2018-05-15T05:46:41.771Z,18.59
2018-05-15T05:47:41.768Z,18.66
2018-05-15T05:48:41.766Z,18.70
2018-05-15T05:49:41.764Z,18.71
2018-05-15T05:50:41.760Z,18.92
2018-05-15T05:51:41.760Z,18.92
2018-05-15T05:52:41.759Z,19.04
2018-05-15T05:53:41.766Z,19.15
2018-05-15T05:54:41.758Z,19.09
2018-05-15T05:55:41.758Z,19.21
2018-05-15T05:56:41.751Z,19.24
2018-05-15T05:57:41.748Z,19.36
2018-05-15T05:58:41.746Z,19.47
2018-05-15T05:59:41.911Z,19.54
2018-05-15T06:00:41.749Z,19.51
2018-05-15T06:01:41.754Z,19.56
2018-05-15T06:02:41.746Z,19.64
2018-05-15T06:03:41.747Z,19.70
2018-05-15T06:04:41.745Z,19.82
2018-05-15T06:05:41.752Z,19.92
2018-05-15T06:06:41.743Z,19.96
2018-05-15T06:07:41.742Z,20.02
2018-05-15T06:08:41.769Z,20.04
2018-05-15T06:09:41.741Z,20.14
2018-05-15T06:10:41.740Z,20.19
2018-05-15T06:11:41.740Z,20.21
2018-05-15T06:12:41.743Z,20.31
2018-05-15T06:13:41.741Z,20.41
2018-05-15T06:14:41.739Z,20.47
2018-05-15T06:15:41.742Z,20.51
2018-05-15T06:16:41.740Z,20.55
2018-05-15T06:17:41.739Z,20.56
2018-05-15T06:18:41.739Z,20.52
2018-05-15T06:19:41.736Z,20.40
2018-05-15T06:20:41.804Z,20.34
2018-05-15T06:21:41.785Z,20.44
2018-05-15T06:22:41.745Z,20.51
2018-05-15T06:23:41.740Z,20.65
2018-05-15T06:24:41.739Z,20.66
2018-05-15T06:25:41.742Z,20.66
2018-05-15T06:26:41.737Z,20.77
2018-05-15T06:27:41.737Z,20.69
2018-05-15T06:28:41.737Z,20.77
2018-05-15T06:29:41.741Z,20.75
2018-05-15T06:30:41.740Z,20.65
2018-05-15T06:31:41.736Z,20.80
2018-05-15T06:32:41.737Z,20.81
2018-05-15T06:33:41.763Z,20.87
2018-05-15T06:34:41.777Z,20.95
2018-05-15T06:35:41.777Z,20.92
2018-05-15T06:36:41.738Z,20.92
2018-05-15T06:37:41.737Z,20.96
2018-05-15T06:38:41.738Z,21.11
2018-05-15T06:39:41.739Z,21.11
2018-05-15T06:40:41.739Z,21.17
2018-05-15T06:41:41.748Z,21.32
2018-05-15T06:42:41.742Z,21.30
2018-05-15T06:43:41.744Z,21.18
2018-05-15T06:44:41.816Z,21.18
2018-05-15T06:45:41.744Z,21.21
2018-05-15T06:46:41.744Z,21.22
2018-05-15T06:47:41.746Z,21.40
2018-05-15T06:48:41.752Z,21.62
2018-05-15T06:49:41.751Z,21.70
2018-05-15T06:50:41.753Z,21.99
2018-05-15T06:51:41.749Z,21.92
2018-05-15T06:52:41.753Z,21.96
2018-05-15T06:53:41.754Z,21.70
2018-05-15T06:54:41.757Z,21.73
2018-05-15T06:55:41.762Z,21.75
2018-05-15T06:56:41.759Z,21.57
2018-05-15T06:57:41.763Z,21.55
2018-05-15T06:58:41.767Z,21.64
2018-05-15T06:59:41.775Z,21.76
2018-05-15T07:00:41.773Z,21.82
2018-05-15T07:01:41.805Z,21.79
2018-05-15T07:02:41.782Z,21.91
2018-05-15T07:03:41.780Z,22.06
2018-05-15T07:04:41.784Z,22.18
2018-05-15T07:05:41.782Z,22.25
2018-05-15T07:06:41.888Z,22.35
2018-05-15T07:07:41.798Z,22.22
2018-05-15T07:08:41.801Z,22.18
2018-05-15T07:09:41.800Z,22.18
2018-05-15T07:10:41.804Z,22.32
2018-05-15T07:11:41.811Z,22.17
2018-05-15T07:12:41.809Z,21.98
2018-05-15T07:13:41.813Z,22.06
2018-05-15T07:14:41.818Z,22.17
2018-05-15T07:15:41.827Z,22.22
2018-05-15T07:16:41.826Z,22.17
2018-05-15T07:17:41.830Z,21.98
2018-05-15T07:18:41.833Z,22.17
2018-05-15T07:19:41.834Z,22.20
2018-05-15T07:20:41.839Z,22.60
2018-05-15T07:21:41.847Z,22.81
2018-05-15T07:22:41.847Z,23.10
2018-05-15T07:23:41.852Z,23.34
2018-05-15T07:24:41.858Z,23.02
2018-05-15T07:25:41.861Z,22.84
2018-05-15T07:26:41.863Z,22.81
2018-05-15T07:27:41.873Z,22.54
2018-05-15T07:28:41.879Z,22.41
2018-05-15T07:29:41.882Z,22.28
2018-05-15T07:30:41.888Z,22.10
2018-05-15T07:31:41.891Z,22.13
2018-05-15T07:32:41.893Z,22.25
2018-05-15T07:33:41.922Z,22.51
2018-05-15T07:34:41.917Z,22.57
2018-05-15T07:35:45.901Z,22.91
2018-05-15T07:36:41.917Z,23.02
2018-05-15T07:37:41.918Z,23.15
2018-05-15T07:38:41.921Z,23.20
2018-05-15T07:39:41.925Z,23.17
2018-05-15T07:40:41.931Z,23.31
2018-05-15T07:41:41.938Z,23.47
2018-05-15T07:42:41.947Z,23.55
2018-05-15T07:43:41.956Z,23.56
2018-05-15T07:44:41.960Z,23.73
2018-05-15T07:45:41.960Z,24.03
2018-05-15T07:46:41.966Z,24.30
2018-05-15T07:47:41.967Z,24.33
2018-05-15T07:48:41.977Z,24.35
2018-05-15T07:49:41.979Z,24.47
2018-05-15T07:50:41.993Z,24.66
2018-05-15T07:51:41.988Z,24.43
2018-05-15T07:52:42.085Z,24.33
2018-05-15T07:53:42.079Z,24.50
2018-05-15T07:54:42.006Z,24.58
2018-05-15T07:55:42.604Z,24.53
2018-05-15T07:56:42.026Z,24.73
2018-05-15T07:57:42.030Z,24.95
2018-05-15T07:58:42.034Z,25.11
2018-05-15T07:59:42.041Z,24.99
2018-05-15T08:00:42.047Z,24.96
2018-05-15T08:01:42.050Z,24.95
2018-05-15T08:02:42.057Z,25.11
2018-05-15T08:03:42.065Z,24.98
2018-05-15T08:04:42.111Z,24.81
2018-05-15T08:05:42.095Z,24.57
2018-05-15T08:06:42.085Z,24.35
2018-05-15T08:07:42.090Z,24.01
2018-05-15T08:08:42.183Z,23.74
2018-05-15T08:09:42.109Z,23.84
2018-05-15T08:10:42.115Z,23.95
2018-05-15T08:11:42.122Z,24.24
2018-05-15T08:12:42.124Z,24.32
2018-05-15T08:13:42.130Z,24.47
2018-05-15T08:14:42.143Z,24.38
2018-05-15T08:15:42.178Z,24.32
2018-05-15T08:16:42.202Z,24.36
2018-05-15T08:17:42.181Z,24.35
2018-05-15T08:18:42.174Z,24.68
2018-05-15T08:19:42.185Z,24.88
2018-05-15T08:20:43.156Z,24.81
2018-05-15T08:21:42.184Z,24.50
2018-05-15T08:22:43.129Z,24.43
2018-05-15T08:23:42.203Z,24.58
2018-05-15T08:24:42.205Z,24.85
2018-05-15T08:25:42.219Z,24.61
2018-05-15T08:26:42.223Z,24.89
2018-05-15T08:27:42.253Z,24.95
2018-05-15T08:28:42.252Z,24.77
2018-05-15T08:29:42.287Z,24.92
2018-05-15T08:30:42.390Z,25.26
2018-05-15T08:31:42.257Z,25.44
2018-05-15T08:32:42.265Z,25.35
2018-05-15T08:33:42.271Z,25.51
2018-05-15T08:34:42.280Z,25.48
2018-05-15T08:35:42.287Z,25.51
2018-05-15T08:36:42.297Z,25.38
2018-05-15T08:37:42.315Z,25.11
2018-05-15T08:38:42.307Z,25.13
2018-05-15T08:39:42.315Z,24.80
2018-05-15T08:40:42.321Z,24.69
2018-05-15T08:41:42.329Z,24.61
2018-05-15T08:42:42.334Z,24.84
2018-05-15T08:43:42.346Z,24.88
2018-05-15T08:44:42.354Z,24.66
2018-05-15T08:45:42.359Z,24.93
2018-05-15T08:46:42.364Z,25.08
2018-05-15T08:47:42.371Z,25.33
2018-05-15T08:48:42.378Z,25.69
2018-05-15T08:49:42.387Z,25.96
2018-05-15T08:50:42.401Z,26.29
2018-05-15T08:51:42.405Z,26.51
2018-05-15T08:52:42.453Z,26.58
2018-05-15T08:53:42.418Z,26.37
2018-05-15T08:54:42.423Z,26.15
2018-05-15T08:55:42.432Z,25.83
2018-05-15T08:56:42.441Z,25.90
2018-05-15T08:57:42.453Z,25.88
2018-05-15T08:58:42.460Z,26.16
2018-05-15T08:59:42.467Z,26.13
2018-05-15T09:00:42.471Z,25.70
2018-05-15T09:01:42.479Z,25.33
2018-05-15T09:02:42.486Z,25.13
2018-05-15T09:03:42.501Z,25.22
2018-05-15T09:04:42.505Z,25.43
2018-05-15T09:05:42.512Z,25.54
2018-05-15T09:06:42.520Z,25.81
2018-05-15T09:07:42.524Z,26.13
2018-05-15T09:08:42.533Z,26.33
2018-05-15T09:09:42.540Z,26.40
2018-05-15T09:10:42.553Z,26.60
2018-05-15T09:11:42.565Z,26.78
2018-05-15T09:12:42.567Z,26.78
2018-05-15T09:13:42.576Z,26.63
2018-05-15T09:14:42.580Z,26.63
2018-05-15T09:15:42.588Z,26.41
2018-05-15T09:16:42.601Z,25.59
2018-05-15T09:17:42.606Z,25.47
2018-05-15T09:18:42.614Z,25.70
2018-05-15T09:19:42.622Z,25.85
2018-05-15T09:20:42.632Z,26.03
2018-05-15T09:21:42.635Z,25.55
2018-05-15T09:22:42.645Z,25.17
2018-05-15T09:23:42.650Z,25.29
2018-05-15T09:24:42.663Z,25.51
2018-05-15T09:25:42.668Z,25.70
2018-05-15T09:26:42.681Z,26.23
2018-05-15T09:27:42.686Z,26.21
2018-05-15T09:28:42.697Z,25.93
2018-05-15T09:29:42.702Z,25.22
2018-05-15T09:30:42.709Z,25.17
2018-05-15T09:31:42.726Z,25.35
2018-05-15T09:32:42.730Z,25.62
2018-05-15T09:33:42.736Z,25.90
2018-05-15T09:34:42.744Z,26.09
2018-05-15T09:35:42.752Z,25.78
2018-05-15T09:36:42.761Z,26.23
2018-05-15T09:37:42.769Z,26.99
2018-05-15T09:38:42.776Z,27.48
2018-05-15T09:39:42.783Z,28.00
2018-05-15T09:40:44.677Z,28.11
2018-05-15T09:41:42.800Z,27.40
2018-05-15T09:42:42.808Z,26.83
2018-05-15T09:43:42.826Z,26.44
2018-05-15T09:44:42.828Z,26.28
2018-05-15T09:45:42.832Z,26.47
2018-05-15T09:46:42.844Z,26.48
2018-05-15T09:47:42.866Z,26.55
2018-05-15T09:48:42.855Z,26.38
2018-05-15T09:49:42.862Z,26.34
2018-05-15T09:50:42.904Z,26.56
2018-05-15T09:51:42.882Z,26.68
2018-05-15T09:52:42.888Z,26.74
2018-05-15T09:53:42.904Z,26.58
2018-05-15T09:54:42.905Z,26.45
2018-05-15T09:55:42.919Z,26.93
2018-05-15T09:56:42.928Z,27.49
2018-05-15T09:57:42.951Z,28.15
2018-05-15T09:58:42.938Z,28.59
2018-05-15T09:59:42.945Z,28.96
2018-05-15T10:00:42.949Z,29.34
2018-05-15T10:01:42.958Z,29.54
2018-05-15T10:02:42.966Z,29.16
2018-05-15T10:03:43.001Z,28.88
2018-05-15T10:04:42.988Z,28.30
2018-05-15T10:05:42.994Z,27.90
2018-05-15T10:06:43.011Z,27.37
2018-05-15T10:07:43.066Z,26.97
2018-05-15T10:08:43.018Z,26.75
2018-05-15T10:09:43.029Z,26.78
2018-05-15T10:10:43.039Z,26.88
2018-05-15T10:11:43.049Z,27.36
2018-05-15T10:12:43.054Z,27.92
2018-05-15T10:13:43.153Z,28.22
2018-05-15T10:14:43.067Z,28.30
2018-05-15T10:15:43.076Z,28.98
2018-05-15T10:16:43.086Z,29.34
2018-05-15T10:17:43.098Z,29.26
2018-05-15T10:18:43.109Z,29.45
2018-05-15T10:19:43.117Z,28.52
2018-05-15T10:20:43.127Z,27.80
2018-05-15T10:21:43.137Z,27.60
2018-05-15T10:22:43.141Z,27.44
2018-05-15T10:23:43.151Z,27.37
2018-05-15T10:24:43.164Z,27.18
2018-05-15T10:25:43.179Z,26.97
2018-05-15T10:26:43.181Z,27.08
2018-05-15T10:27:43.187Z,27.25
2018-05-15T10:28:43.197Z,27.27
2018-05-15T10:29:43.204Z,27.25
2018-05-15T10:30:43.214Z,27.32
2018-05-15T10:31:43.240Z,27.54
2018-05-15T10:32:43.235Z,27.26
2018-05-15T10:33:43.247Z,27.17
2018-05-15T10:34:43.249Z,26.93
2018-05-15T10:35:43.258Z,26.81
2018-05-15T10:36:43.269Z,26.78
2018-05-15T10:37:43.282Z,26.73
2018-05-15T10:38:43.310Z,26.93
2018-05-15T10:39:43.300Z,27.30
2018-05-15T10:40:43.305Z,27.73
2018-05-15T10:41:43.315Z,28.14
2018-05-15T10:42:43.340Z,28.49
2018-05-15T10:43:43.334Z,28.48
2018-05-15T10:44:43.350Z,28.23
2018-05-15T10:45:43.355Z,28.12
2018-05-15T10:46:43.364Z,27.63
2018-05-15T10:47:43.376Z,27.86
2018-05-15T10:48:43.380Z,27.89
2018-05-15T10:49:43.387Z,27.63
2018-05-15T10:50:43.469Z,26.56
2018-05-15T10:51:43.422Z,25.93
2018-05-15T10:52:43.431Z,25.72
2018-05-15T10:53:43.435Z,25.96
2018-05-15T10:54:43.442Z,26.16
2018-05-15T10:55:43.445Z,26.41
2018-05-15T10:56:43.465Z,26.51
2018-05-15T10:57:43.465Z,26.51
2018-05-15T10:58:43.477Z,26.43
2018-05-15T10:59:43.489Z,26.73
2018-05-15T11:00:43.499Z,26.96
2018-05-15T11:01:43.508Z,27.33
2018-05-15T11:02:43.513Z,27.03
2018-05-15T11:03:43.526Z,26.71
2018-05-15T11:04:43.531Z,26.37
2018-05-15T11:05:43.540Z,26.43
2018-05-15T11:06:43.550Z,26.88
2018-05-15T11:07:43.557Z,26.47
2018-05-15T11:08:43.565Z,26.62
2018-05-15T11:09:43.572Z,26.75
2018-05-15T11:10:43.580Z,26.83
2018-05-15T11:11:43.593Z,26.85
2018-05-15T11:12:43.617Z,26.75
2018-05-15T11:13:43.607Z,26.65
2018-05-15T11:14:43.616Z,26.84
2018-05-15T11:15:43.622Z,26.37
2018-05-15T11:16:43.634Z,26.15
2018-05-15T11:17:43.641Z,26.07
2018-05-15T11:18:43.680Z,26.10
2018-05-15T11:19:43.676Z,26.29
2018-05-15T11:20:43.669Z,26.40
2018-05-15T11:21:43.673Z,26.22
2018-05-15T11:22:43.681Z,25.80
2018-05-15T11:23:43.692Z,25.99
2018-05-15T11:24:43.708Z,26.09
2018-05-15T11:25:43.710Z,25.98
2018-05-15T11:26:43.717Z,25.88
2018-05-15T11:27:43.725Z,26.29
2018-05-15T11:28:43.732Z,26.41
2018-05-15T11:29:43.740Z,26.70
2018-05-15T11:30:43.749Z,26.92
2018-05-15T11:31:43.759Z,27.02
2018-05-15T11:32:43.767Z,26.99
2018-05-15T11:33:43.775Z,27.15
2018-05-15T11:34:43.778Z,27.29
2018-05-15T11:35:43.840Z,27.51
2018-05-15T11:36:43.795Z,27.49
2018-05-15T11:37:43.802Z,27.63
2018-05-15T11:38:43.813Z,27.37
2018-05-15T11:39:43.825Z,26.84
2018-05-15T11:40:43.829Z,26.31
2018-05-15T11:41:43.908Z,26.19
2018-05-15T11:42:43.844Z,26.31
2018-05-15T11:43:43.859Z,26.28
2018-05-15T11:44:43.866Z,26.44
2018-05-15T11:45:43.876Z,26.62
2018-05-15T11:46:43.883Z,26.60
2018-05-15T11:47:44.125Z,26.55
2018-05-15T11:48:44.273Z,26.47
2018-05-15T11:49:44.622Z,26.29
2018-05-15T11:50:45.011Z,26.28
2018-05-15T11:51:44.653Z,26.23
2018-05-15T11:52:44.313Z,26.19
2018-05-15T11:53:43.944Z,26.29
2018-05-15T11:54:43.949Z,26.40
2018-05-15T11:55:43.962Z,26.28
2018-05-15T11:56:43.971Z,26.26
2018-05-15T11:57:44.006Z,26.22
2018-05-15T11:58:43.990Z,26.28
2018-05-15T11:59:44.020Z,26.22
2018-05-15T12:00:44.009Z,26.31
2018-05-15T12:01:44.017Z,26.18
2018-05-15T12:02:44.082Z,26.18
2018-05-15T12:03:44.114Z,26.36
2018-05-15T12:04:44.043Z,26.40
2018-05-15T12:05:44.052Z,26.29
2018-05-15T12:06:44.060Z,26.37
2018-05-15T12:07:44.146Z,26.43
2018-05-15T12:08:44.075Z,26.37
2018-05-15T12:09:44.086Z,26.44
2018-05-15T12:10:44.189Z,26.68
2018-05-15T12:11:44.119Z,27.00
2018-05-15T12:12:44.116Z,27.02
2018-05-15T12:13:44.134Z,27.03
2018-05-15T12:14:44.131Z,26.71
2018-05-15T12:15:44.138Z,26.60
2018-05-15T12:16:44.148Z,26.60
2018-05-15T12:17:44.158Z,26.60
2018-05-15T12:18:44.168Z,26.51
2018-05-15T12:19:44.177Z,26.38
2018-05-15T12:20:44.188Z,26.36
2018-05-15T12:21:44.189Z,26.31
2018-05-15T12:22:44.199Z,26.23
2018-05-15T12:23:44.208Z,26.07
2018-05-15T12:24:44.218Z,26.13
2018-05-15T12:25:44.229Z,26.16
2018-05-15T12:26:44.237Z,25.99
2018-05-15T12:27:44.247Z,25.91
2018-05-15T12:28:44.255Z,25.75
2018-05-15T12:29:44.261Z,25.77
2018-05-15T12:30:44.275Z,25.59
2018-05-15T12:31:44.279Z,25.58
2018-05-15T12:32:44.286Z,25.75
2018-05-15T12:33:44.300Z,25.98
2018-05-15T12:34:44.305Z,26.25
2018-05-15T12:35:44.340Z,26.43
2018-05-15T12:36:44.325Z,26.37
2018-05-15T12:37:44.330Z,26.55
2018-05-15T12:38:44.339Z,26.65
2018-05-15T12:39:44.349Z,26.70
2018-05-15T12:40:44.355Z,26.43
2018-05-15T12:41:44.514Z,26.07
2018-05-15T12:42:44.369Z,25.87
2018-05-15T12:43:44.378Z,25.83
2018-05-15T12:44:44.385Z,25.62
2018-05-15T12:45:44.394Z,25.43
2018-05-15T12:46:44.439Z,25.29
2018-05-15T12:47:44.501Z,25.38
2018-05-15T12:48:44.457Z,25.22
2018-05-15T12:49:44.425Z,24.95
2018-05-15T12:50:44.433Z,24.96
2018-05-15T12:51:44.444Z,24.99
2018-05-15T12:52:44.453Z,25.08